createdAt,value
2022-10-17T00:13:53.492Z,27.613
2022-10-17T00:28:55.380Z,28.978
2022-10-17T00:43:57.222Z,27.014
2022-10-17T00:58:59.093Z,26.899
2022-10-17T01:14:01.067Z,27.26
2022-10-17T01:29:03.025Z,27.008
2022-10-17T01:44:04.871Z,26.395
2022-10-17T01:59:06.693Z,26.502
2022-10-17T02:14:08.597Z,26.284
2022-10-17T02:29:10.476Z,25.977
2022-10-17T02:44:12.287Z,26.129
2022-10-17T02:59:14.108Z,27.336
2022-10-17T03:14:15.931Z,26.568
2022-10-17T03:29:17.785Z,27.38
2022-10-17T03:44:19.640Z,27.78
2022-10-17T03:59:21.471Z,27.319
2022-10-17T04:14:23.328Z,26.135
2022-10-17T04:29:25.162Z,27.854
2022-10-17T04:44:26.979Z,26.353
2022-10-17T04:59:28.814Z,26.425
2022-10-17T05:14:30.663Z,27.084
2022-10-17T05:29:32.503Z,26.29
2022-10-17T05:44:34.337Z,27.868
2022-10-17T05:59:36.138Z,27.831
2022-10-17T06:14:37.984Z,28.3
2022-10-17T06:29:39.845Z,27.929
2022-10-17T06:44:41.692Z,26.08
2022-10-17T06:59:43.514Z,26.127
2022-10-17T07:14:45.377Z,26.678
2022-10-17T07:29:47.232Z,26.201
2022-10-17T07:44:49.084Z,26.881
2022-10-17T07:59:50.924Z,26.317
2022-10-17T08:14:52.768Z,26.314
2022-10-17T08:29:54.584Z,26.375
2022-10-17T08:44:56.442Z,26.174
2022-10-17T08:59:58.291Z,26.508
2022-10-17T09:15:00.128Z,26.145
2022-10-17T09:30:01.958Z,26.508
2022-10-17T09:45:03.808Z,25.957
2022-10-17T10:00:05.765Z,26.04
2022-10-17T10:15:07.679Z,26.079
2022-10-17T10:30:09.545Z,25.812
2022-10-17T10:45:23.693Z,26.02
2022-10-17T11:00:31.090Z,25.891
2022-10-17T11:15:33.006Z,25.562
2022-10-17T11:30:34.887Z,25.515
2022-10-17T11:45:36.850Z,25.216
2022-10-17T12:00:41.110Z,25.466
2022-10-17T12:15:46.641Z,25.438
2022-10-17T12:30:48.646Z,25.057
2022-10-17T12:45:50.494Z,25.158
2022-10-17T13:01:11.810Z,25.13
2022-10-17T13:16:21.243Z,24.998
2022-10-17T13:31:23.139Z,26.072
2022-10-17T13:46:36.926Z,25.19
2022-10-17T14:01:40.024Z,25.206
2022-10-17T14:16:41.870Z,25.125
2022-10-17T14:31:43.699Z,25.459
2022-10-17T14:46:48.465Z,25.078
2022-10-17T15:01:52.503Z,24.866
2022-10-17T15:16:54.362Z,24.882
2022-10-17T15:31:56.203Z,24.756
2022-10-17T15:46:58.046Z,24.296
2022-10-17T16:01:59.906Z,25.417
2022-10-17T16:17:01.732Z,25.912
2022-10-17T16:32:03.583Z,26.183
2022-10-17T16:47:05.411Z,26.825
2022-10-17T17:02:07.235Z,25.699
2022-10-17T17:17:15.415Z,25.545
2022-10-17T17:32:26.418Z,27.021
2022-10-17T17:47:28.549Z,27.346
2022-10-17T18:02:30.780Z,26.235
2022-10-17T18:17:32.804Z,26.115
2022-10-17T18:32:34.617Z,26.733
2022-10-17T18:47:36.471Z,26.554
2022-10-17T19:02:38.334Z,25.94
2022-10-17T19:17:40.166Z,26.394
2022-10-17T19:32:42.002Z,26.203
2022-10-17T19:47:43.829Z,26.416
2022-10-17T20:02:45.635Z,26.427
2022-10-17T20:17:47.473Z,27.378
2022-10-17T20:32:49.391Z,27.647
2022-10-17T20:47:52.494Z,26.723
2022-10-17T21:17:56.358Z,26.388
2022-10-17T21:32:58.725Z,27.021
2022-10-17T21:48:12.503Z,27.437
2022-10-17T22:03:14.901Z,27.508
2022-10-17T22:18:16.733Z,27.14
2022-10-17T22:33:18.671Z,26.659
2022-10-17T22:48:20.497Z,26.694
2022-10-17T23:03:22.313Z,27.344
2022-10-17T23:18:24.243Z,27.564
2022-10-17T23:33:26.140Z,27.512
2022-10-17T23:48:28.024Z,27.263
